sensor_id;sensor_type;location;lat;lon;timestamp;P1;durP1;ratioP1;P2;durP2;ratioP2
41683;SDS011;27369;52.030;4.586;2022-10-31T00:01:08;7.00;;;4.32;;
41683;SDS011;27369;52.030;4.586;2022-10-31T00:03:39;7.47;;;4.50;;
41683;SDS011;27369;52.030;4.586;2022-10-31T00:06:05;8.93;;;5.03;;
41683;SDS011;27369;52.030;4.586;2022-10-31T00:08:30;5.18;;;4.60;;
41683;SDS011;27369;52.030;4.586;2022-10-31T00:10:56;4.88;;;4.43;;
41683;SDS011;27369;52.030;4.586;2022-10-31T00:13:21;4.43;;;4.13;;
41683;SDS011;27369;52.030;4.586;2022-10-31T00:15:46;4.95;;;4.55;;
41683;SDS011;27369;52.030;4.586;2022-10-31T00:18:13;3.95;;;3.65;;
41683;SDS011;27369;52.030;4.586;2022-10-31T00:20:38;5.68;;;4.13;;
41683;SDS011;27369;52.030;4.586;2022-10-31T00:23:05;5.63;;;4.55;;
41683;SDS011;27369;52.030;4.586;2022-10-31T00:28:00;9.27;;;5.35;;
41683;SDS011;27369;52.030;4.586;2022-10-31T00:30:26;4.95;;;4.63;;
41683;SDS011;27369;52.030;4.586;2022-10-31T00:32:51;4.55;;;4.25;;
41683;SDS011;27369;52.030;4.586;2022-10-31T00:35:17;7.63;;;4.70;;
41683;SDS011;27369;52.030;4.586;2022-10-31T00:37:42;6.80;;;5.10;;
41683;SDS011;27369;52.030;4.586;2022-10-31T00:40:08;8.25;;;4.63;;
41683;SDS011;27369;52.030;4.586;2022-10-31T00:42:34;4.22;;;3.95;;
41683;SDS011;27369;52.030;4.586;2022-10-31T00:44:59;5.35;;;4.18;;
41683;SDS011;27369;52.030;4.586;2022-10-31T00:47:25;5.00;;;4.25;;
41683;SDS011;27369;52.030;4.586;2022-10-31T00:49:50;6.25;;;4.15;;
41683;SDS011;27369;52.030;4.586;2022-10-31T00:52:15;4.47;;;4.07;;
41683;SDS011;27369;52.030;4.586;2022-10-31T00:54:41;5.50;;;4.82;;
41683;SDS011;27369;52.030;4.586;2022-10-31T00:57:06;6.47;;;4.43;;
41683;SDS011;27369;52.030;4.586;2022-10-31T00:59:31;5.10;;;4.70;;
41683;SDS011;27369;52.030;4.586;2022-10-31T01:01:57;6.35;;;4.75;;
41683;SDS011;27369;52.030;4.586;2022-10-31T01:04:23;8.75;;;5.35;;
41683;SDS011;27369;52.030;4.586;2022-10-31T01:06:48;5.55;;;4.80;;
41683;SDS011;27369;52.030;4.586;2022-10-31T01:09:14;5.10;;;4.70;;
41683;SDS011;27369;52.030;4.586;2022-10-31T01:11:39;9.73;;;5.32;;
41683;SDS011;27369;52.030;4.586;2022-10-31T01:14:04;6.55;;;5.43;;
41683;SDS011;27369;52.030;4.586;2022-10-31T01:16:30;5.50;;;4.88;;
41683;SDS011;27369;52.030;4.586;2022-10-31T01:18:55;5.18;;;4.78;;
41683;SDS011;27369;52.030;4.586;2022-10-31T01:21:22;7.28;;;5.65;;
41683;SDS011;27369;52.030;4.586;2022-10-31T01:23:50;10.18;;;6.90;;
41683;SDS011;27369;52.030;4.586;2022-10-31T01:26:17;8.82;;;6.53;;
41683;SDS011;27369;52.030;4.586;2022-10-31T01:28:48;8.77;;;6.60;;
41683;SDS011;27369;52.030;4.586;2022-10-31T01:31:16;7.95;;;6.50;;
41683;SDS011;27369;52.030;4.586;2022-10-31T01:33:43;7.80;;;6.43;;
41683;SDS011;27369;52.030;4.586;2022-10-31T01:38:37;9.35;;;7.53;;
41683;SDS011;27369;52.030;4.586;2022-10-31T01:41:02;8.85;;;6.70;;
41683;SDS011;27369;52.030;4.586;2022-10-31T01:46:15;8.98;;;6.28;;
41683;SDS011;27369;52.030;4.586;2022-10-31T01:48:46;11.75;;;7.18;;
41683;SDS011;27369;52.030;4.586;2022-10-31T01:53:39;9.77;;;6.97;;
41683;SDS011;27369;52.030;4.586;2022-10-31T01:56:07;9.70;;;7.20;;
41683;SDS011;27369;52.030;4.586;2022-10-31T01:58:33;9.98;;;7.57;;
41683;SDS011;27369;52.030;4.586;2022-10-31T02:00:59;8.57;;;7.45;;
41683;SDS011;27369;52.030;4.586;2022-10-31T02:03:26;8.35;;;7.47;;
41683;SDS011;27369;52.030;4.586;2022-10-31T02:05:53;7.72;;;6.70;;
41683;SDS011;27369;52.030;4.586;2022-10-31T02:08:23;7.88;;;7.07;;
41683;SDS011;27369;52.030;4.586;2022-10-31T02:10:55;8.00;;;7.15;;
41683;SDS011;27369;52.030;4.586;2022-10-31T02:13:21;9.68;;;7.88;;
41683;SDS011;27369;52.030;4.586;2022-10-31T02:15:55;11.30;;;7.90;;
41683;SDS011;27369;52.030;4.586;2022-10-31T02:18:22;9.35;;;7.20;;
41683;SDS011;27369;52.030;4.586;2022-10-31T02:26:43;9.25;;;8.35;;
41683;SDS011;27369;52.030;4.586;2022-10-31T02:37:50;9.30;;;8.32;;
41683;SDS011;27369;52.030;4.586;2022-10-31T02:40:26;9.73;;;8.32;;
41683;SDS011;27369;52.030;4.586;2022-10-31T02:48:22;9.73;;;8.70;;
41683;SDS011;27369;52.030;4.586;2022-10-31T02:50:56;11.23;;;8.40;;
41683;SDS011;27369;52.030;4.586;2022-10-31T02:53:24;10.52;;;8.15;;
41683;SDS011;27369;52.030;4.586;2022-10-31T02:58:28;13.10;;;9.88;;
41683;SDS011;27369;52.030;4.586;2022-10-31T03:08:59;11.20;;;10.10;;
41683;SDS011;27369;52.030;4.586;2022-10-31T03:11:41;11.57;;;9.95;;
41683;SDS011;27369;52.030;4.586;2022-10-31T03:14:13;12.32;;;10.20;;
41683;SDS011;27369;52.030;4.586;2022-10-31T03:16:50;13.18;;;10.20;;
41683;SDS011;27369;52.030;4.586;2022-10-31T03:19:23;11.27;;;10.20;;
41683;SDS011;27369;52.030;4.586;2022-10-31T03:24:24;13.38;;;11.95;;
41683;SDS011;27369;52.030;4.586;2022-10-31T03:26:54;13.05;;;11.48;;
41683;SDS011;27369;52.030;4.586;2022-10-31T03:29:23;12.13;;;10.48;;
41683;SDS011;27369;52.030;4.586;2022-10-31T03:31:58;11.27;;;10.20;;
41683;SDS011;27369;52.030;4.586;2022-10-31T03:34:26;12.73;;;11.27;;
41683;SDS011;27369;52.030;4.586;2022-10-31T03:36:56;14.90;;;11.30;;
41683;SDS011;27369;52.030;4.586;2022-10-31T03:39:23;12.85;;;11.55;;
41683;SDS011;27369;52.030;4.586;2022-10-31T03:41:53;14.38;;;11.90;;
41683;SDS011;27369;52.030;4.586;2022-10-31T03:44:21;21.65;;;11.43;;
41683;SDS011;27369;52.030;4.586;2022-10-31T03:46:48;14.80;;;11.52;;
41683;SDS011;27369;52.030;4.586;2022-10-31T03:49:14;15.45;;;11.40;;
41683;SDS011;27369;52.030;4.586;2022-10-31T03:56:58;18.55;;;14.00;;
41683;SDS011;27369;52.030;4.586;2022-10-31T03:59:26;21.13;;;13.68;;
41683;SDS011;27369;52.030;4.586;2022-10-31T04:01:57;18.95;;;12.85;;
41683;SDS011;27369;52.030;4.586;2022-10-31T04:04:31;17.65;;;12.10;;
41683;SDS011;27369;52.030;4.586;2022-10-31T04:06:58;18.00;;;13.38;;
41683;SDS011;27369;52.030;4.586;2022-10-31T04:09:26;22.52;;;13.90;;
41683;SDS011;27369;52.030;4.586;2022-10-31T04:11:55;17.13;;;13.93;;
41683;SDS011;27369;52.030;4.586;2022-10-31T04:14:26;16.83;;;14.05;;
41683;SDS011;27369;52.030;4.586;2022-10-31T04:16:56;22.52;;;14.48;;
41683;SDS011;27369;52.030;4.586;2022-10-31T04:19:21;23.85;;;14.85;;
41683;SDS011;27369;52.030;4.586;2022-10-31T04:21:47;18.25;;;13.90;;
41683;SDS011;27369;52.030;4.586;2022-10-31T04:24:12;20.65;;;15.07;;
41683;SDS011;27369;52.030;4.586;2022-10-31T04:26:37;25.77;;;15.45;;
41683;SDS011;27369;52.030;4.586;2022-10-31T04:29:03;23.25;;;16.10;;
41683;SDS011;27369;52.030;4.586;2022-10-31T04:31:28;19.02;;;16.40;;
41683;SDS011;27369;52.030;4.586;2022-10-31T04:33:54;21.42;;;17.83;;
41683;SDS011;27369;52.030;4.586;2022-10-31T04:36:19;20.50;;;16.63;;
41683;SDS011;27369;52.030;4.586;2022-10-31T04:38:45;20.77;;;17.13;;
41683;SDS011;27369;52.030;4.586;2022-10-31T04:41:10;24.80;;;17.30;;
41683;SDS011;27369;52.030;4.586;2022-10-31T04:43:36;21.90;;;17.25;;
41683;SDS011;27369;52.030;4.586;2022-10-31T04:46:01;20.98;;;16.98;;
41683;SDS011;27369;52.030;4.586;2022-10-31T04:48:27;24.08;;;17.20;;
41683;SDS011;27369;52.030;4.586;2022-10-31T04:50:52;26.38;;;17.30;;
41683;SDS011;27369;52.030;4.586;2022-10-31T04:53:18;22.80;;;17.90;;
41683;SDS011;27369;52.030;4.586;2022-10-31T04:55:43;22.75;;;20.42;;
41683;SDS011;27369;52.030;4.586;2022-10-31T04:58:08;22.58;;;20.17;;
41683;SDS011;27369;52.030;4.586;2022-10-31T05:00:34;22.63;;;19.25;;
41683;SDS011;27369;52.030;4.586;2022-10-31T05:02:59;23.30;;;21.00;;
41683;SDS011;27369;52.030;4.586;2022-10-31T05:05:25;25.42;;;20.35;;
41683;SDS011;27369;52.030;4.586;2022-10-31T05:07:55;23.00;;;20.70;;
41683;SDS011;27369;52.030;4.586;2022-10-31T05:10:22;25.80;;;20.90;;
41683;SDS011;27369;52.030;4.586;2022-10-31T05:12:50;24.25;;;21.42;;
41683;SDS011;27369;52.030;4.586;2022-10-31T05:15:18;25.60;;;22.58;;
41683;SDS011;27369;52.030;4.586;2022-10-31T05:17:44;25.13;;;21.65;;
41683;SDS011;27369;52.030;4.586;2022-10-31T05:20:11;27.20;;;22.05;;
41683;SDS011;27369;52.030;4.586;2022-10-31T05:22:41;26.95;;;22.42;;
41683;SDS011;27369;52.030;4.586;2022-10-31T05:25:08;29.42;;;22.42;;
41683;SDS011;27369;52.030;4.586;2022-10-31T05:27:33;26.98;;;24.13;;
41683;SDS011;27369;52.030;4.586;2022-10-31T05:29:59;25.07;;;22.30;;
41683;SDS011;27369;52.030;4.586;2022-10-31T05:32:24;26.45;;;23.13;;
41683;SDS011;27369;52.030;4.586;2022-10-31T05:34:49;25.92;;;23.13;;
41683;SDS011;27369;52.030;4.586;2022-10-31T05:37:15;25.35;;;22.73;;
41683;SDS011;27369;52.030;4.586;2022-10-31T05:39:40;25.75;;;23.00;;
41683;SDS011;27369;52.030;4.586;2022-10-31T05:42:05;26.98;;;24.05;;
41683;SDS011;27369;52.030;4.586;2022-10-31T05:44:31;25.40;;;22.15;;
41683;SDS011;27369;52.030;4.586;2022-10-31T05:46:56;25.95;;;22.38;;
41683;SDS011;27369;52.030;4.586;2022-10-31T05:49:22;27.58;;;23.33;;
41683;SDS011;27369;52.030;4.586;2022-10-31T05:51:47;32.17;;;25.05;;
41683;SDS011;27369;52.030;4.586;2022-10-31T05:54:13;29.08;;;24.85;;
41683;SDS011;27369;52.030;4.586;2022-10-31T05:56:38;27.55;;;23.33;;
41683;SDS011;27369;52.030;4.586;2022-10-31T05:59:04;28.58;;;23.25;;
41683;SDS011;27369;52.030;4.586;2022-10-31T06:01:29;29.70;;;23.67;;
41683;SDS011;27369;52.030;4.586;2022-10-31T06:03:54;29.90;;;24.40;;
41683;SDS011;27369;52.030;4.586;2022-10-31T06:06:20;30.77;;;25.48;;
41683;SDS011;27369;52.030;4.586;2022-10-31T06:08:45;33.37;;;26.07;;
41683;SDS011;27369;52.030;4.586;2022-10-31T06:11:10;28.38;;;24.92;;
41683;SDS011;27369;52.030;4.586;2022-10-31T06:13:36;33.38;;;24.92;;
41683;SDS011;27369;52.030;4.586;2022-10-31T06:16:01;32.58;;;25.63;;
41683;SDS011;27369;52.030;4.586;2022-10-31T06:18:27;33.65;;;26.85;;
41683;SDS011;27369;52.030;4.586;2022-10-31T06:20:52;32.35;;;26.80;;
41683;SDS011;27369;52.030;4.586;2022-10-31T06:23:17;37.42;;;26.67;;
41683;SDS011;27369;52.030;4.586;2022-10-31T06:25:43;36.33;;;27.43;;
41683;SDS011;27369;52.030;4.586;2022-10-31T06:28:12;47.25;;;29.63;;
41683;SDS011;27369;52.030;4.586;2022-10-31T06:30:38;91.97;;;28.73;;
41683;SDS011;27369;52.030;4.586;2022-10-31T06:33:04;78.15;;;30.52;;
41683;SDS011;27369;52.030;4.586;2022-10-31T06:35:30;97.18;;;30.25;;
41683;SDS011;27369;52.030;4.586;2022-10-31T06:37:56;82.57;;;24.50;;
41683;SDS011;27369;52.030;4.586;2022-10-31T06:40:21;88.15;;;23.88;;
41683;SDS011;27369;52.030;4.586;2022-10-31T06:42:47;92.93;;;24.40;;
41683;SDS011;27369;52.030;4.586;2022-10-31T06:45:20;116.45;;;25.48;;
41683;SDS011;27369;52.030;4.586;2022-10-31T06:47:50;112.97;;;22.50;;
41683;SDS011;27369;52.030;4.586;2022-10-31T06:50:19;104.35;;;22.63;;
41683;SDS011;27369;52.030;4.586;2022-10-31T06:52:51;87.47;;;22.17;;
41683;SDS011;27369;52.030;4.586;2022-10-31T06:55:17;39.70;;;20.55;;
41683;SDS011;27369;52.030;4.586;2022-10-31T06:57:48;75.60;;;20.40;;
41683;SDS011;27369;52.030;4.586;2022-10-31T07:00:14;75.38;;;21.10;;
41683;SDS011;27369;52.030;4.586;2022-10-31T07:02:40;66.38;;;20.48;;
41683;SDS011;27369;52.030;4.586;2022-10-31T07:05:06;86.68;;;20.17;;
41683;SDS011;27369;52.030;4.586;2022-10-31T07:07:31;39.17;;;19.23;;
41683;SDS011;27369;52.030;4.586;2022-10-31T07:09:56;58.83;;;18.70;;
41683;SDS011;27369;52.030;4.586;2022-10-31T07:12:22;74.70;;;19.23;;
41683;SDS011;27369;52.030;4.586;2022-10-31T07:14:47;84.65;;;19.25;;
41683;SDS011;27369;52.030;4.586;2022-10-31T07:17:13;95.57;;;20.23;;
41683;SDS011;27369;52.030;4.586;2022-10-31T07:19:38;48.28;;;19.38;;
41683;SDS011;27369;52.030;4.586;2022-10-31T07:22:04;81.75;;;19.17;;
41683;SDS011;27369;52.030;4.586;2022-10-31T07:24:29;68.93;;;19.52;;
41683;SDS011;27369;52.030;4.586;2022-10-31T07:26:55;51.65;;;20.48;;
41683;SDS011;27369;52.030;4.586;2022-10-31T07:29:20;47.72;;;19.33;;
41683;SDS011;27369;52.030;4.586;2022-10-31T07:31:46;53.83;;;19.75;;
41683;SDS011;27369;52.030;4.586;2022-10-31T07:34:12;77.53;;;20.52;;
41683;SDS011;27369;52.030;4.586;2022-10-31T07:36:37;75.20;;;20.15;;
41683;SDS011;27369;52.030;4.586;2022-10-31T07:39:02;43.35;;;19.23;;
41683;SDS011;27369;52.030;4.586;2022-10-31T07:41:28;45.28;;;20.23;;
41683;SDS011;27369;52.030;4.586;2022-10-31T07:43:53;52.53;;;21.42;;
41683;SDS011;27369;52.030;4.586;2022-10-31T07:46:19;77.87;;;21.73;;
41683;SDS011;27369;52.030;4.586;2022-10-31T07:48:44;90.10;;;22.50;;
41683;SDS011;27369;52.030;4.586;2022-10-31T07:51:10;59.25;;;21.10;;
41683;SDS011;27369;52.030;4.586;2022-10-31T07:53:35;79.68;;;22.00;;
41683;SDS011;27369;52.030;4.586;2022-10-31T07:56:00;65.35;;;22.05;;
41683;SDS011;27369;52.030;4.586;2022-10-31T07:58:26;73.38;;;22.25;;
41683;SDS011;27369;52.030;4.586;2022-10-31T08:00:51;86.13;;;22.00;;
41683;SDS011;27369;52.030;4.586;2022-10-31T08:03:17;87.97;;;23.60;;
41683;SDS011;27369;52.030;4.586;2022-10-31T08:05:44;56.97;;;22.38;;
41683;SDS011;27369;52.030;4.586;2022-10-31T08:08:12;56.92;;;21.35;;
41683;SDS011;27369;52.030;4.586;2022-10-31T08:10:38;103.50;;;22.55;;
41683;SDS011;27369;52.030;4.586;2022-10-31T08:13:10;77.90;;;23.38;;
41683;SDS011;27369;52.030;4.586;2022-10-31T08:15:36;65.93;;;22.92;;
41683;SDS011;27369;52.030;4.586;2022-10-31T08:18:05;52.80;;;23.75;;
41683;SDS011;27369;52.030;4.586;2022-10-31T08:20:31;80.85;;;24.63;;
41683;SDS011;27369;52.030;4.586;2022-10-31T08:22:59;52.83;;;25.25;;
41683;SDS011;27369;52.030;4.586;2022-10-31T08:25:27;37.15;;;24.30;;
41683;SDS011;27369;52.030;4.586;2022-10-31T08:27:54;41.30;;;25.27;;
41683;SDS011;27369;52.030;4.586;2022-10-31T08:30:21;41.42;;;24.75;;
41683;SDS011;27369;52.030;4.586;2022-10-31T08:32:56;45.65;;;24.52;;
41683;SDS011;27369;52.030;4.586;2022-10-31T08:35:33;58.40;;;25.38;;
41683;SDS011;27369;52.030;4.586;2022-10-31T08:37:59;44.63;;;25.67;;
41683;SDS011;27369;52.030;4.586;2022-10-31T08:40:24;48.65;;;27.25;;
41683;SDS011;27369;52.030;4.586;2022-10-31T08:43:01;58.65;;;26.48;;
41683;SDS011;27369;52.030;4.586;2022-10-31T08:48:01;43.90;;;26.58;;
41683;SDS011;27369;52.030;4.586;2022-10-31T08:50:29;46.47;;;28.42;;
41683;SDS011;27369;52.030;4.586;2022-10-31T08:55:50;37.90;;;28.90;;
41683;SDS011;27369;52.030;4.586;2022-10-31T08:58:19;37.00;;;29.98;;
41683;SDS011;27369;52.030;4.586;2022-10-31T09:00:45;41.97;;;33.17;;
41683;SDS011;27369;52.030;4.586;2022-10-31T09:03:17;41.75;;;33.08;;
41683;SDS011;27369;52.030;4.586;2022-10-31T09:05:46;36.58;;;30.67;;
41683;SDS011;27369;52.030;4.586;2022-10-31T09:08:12;36.85;;;30.42;;
41683;SDS011;27369;52.030;4.586;2022-10-31T09:10:38;35.05;;;31.15;;
41683;SDS011;27369;52.030;4.586;2022-10-31T09:13:08;35.22;;;30.38;;
41683;SDS011;27369;52.030;4.586;2022-10-31T09:15:39;46.10;;;32.17;;
41683;SDS011;27369;52.030;4.586;2022-10-31T09:18:06;34.85;;;30.67;;
41683;SDS011;27369;52.030;4.586;2022-10-31T09:20:33;32.90;;;29.33;;
41683;SDS011;27369;52.030;4.586;2022-10-31T09:23:04;33.20;;;28.95;;
41683;SDS011;27369;52.030;4.586;2022-10-31T09:25:32;31.08;;;27.77;;
41683;SDS011;27369;52.030;4.586;2022-10-31T09:27:59;34.00;;;28.58;;
41683;SDS011;27369;52.030;4.586;2022-10-31T09:30:26;33.28;;;28.08;;
41683;SDS011;27369;52.030;4.586;2022-10-31T09:32:56;30.20;;;27.00;;
41683;SDS011;27369;52.030;4.586;2022-10-31T09:35:23;30.75;;;27.42;;
41683;SDS011;27369;52.030;4.586;2022-10-31T09:37:56;31.80;;;26.90;;
41683;SDS011;27369;52.030;4.586;2022-10-31T09:40:34;31.60;;;27.15;;
41683;SDS011;27369;52.030;4.586;2022-10-31T09:45:33;29.50;;;26.40;;
41683;SDS011;27369;52.030;4.586;2022-10-31T09:50:48;30.88;;;26.75;;
41683;SDS011;27369;52.030;4.586;2022-10-31T09:55:48;31.58;;;26.67;;
41683;SDS011;27369;52.030;4.586;2022-10-31T09:58:15;30.75;;;26.83;;
41683;SDS011;27369;52.030;4.586;2022-10-31T10:00:45;28.33;;;25.42;;
41683;SDS011;27369;52.030;4.586;2022-10-31T10:06:27;32.47;;;25.75;;
41683;SDS011;27369;52.030;4.586;2022-10-31T10:08:49;29.38;;;25.60;;
41683;SDS011;27369;52.030;4.586;2022-10-31T10:22:00;33.33;;;26.85;;
41683;SDS011;27369;52.030;4.586;2022-10-31T10:24:44;30.00;;;26.77;;
41683;SDS011;27369;52.030;4.586;2022-10-31T10:32:41;30.38;;;27.17;;
41683;SDS011;27369;52.030;4.586;2022-10-31T10:37:52;30.42;;;26.45;;
41683;SDS011;27369;52.030;4.586;2022-10-31T10:40:25;30.13;;;25.15;;
41683;SDS011;27369;52.030;4.586;2022-10-31T10:45:39;31.40;;;22.85;;
41683;SDS011;27369;52.030;4.586;2022-10-31T10:48:48;30.13;;;23.30;;
41683;SDS011;27369;52.030;4.586;2022-10-31T10:51:47;29.10;;;23.23;;
41683;SDS011;27369;52.030;4.586;2022-10-31T10:54:22;27.92;;;23.90;;
41683;SDS011;27369;52.030;4.586;2022-10-31T10:59:49;27.35;;;23.58;;
41683;SDS011;27369;52.030;4.586;2022-10-31T11:02:17;31.40;;;24.13;;
41683;SDS011;27369;52.030;4.586;2022-10-31T11:04:45;36.72;;;24.92;;
41683;SDS011;27369;52.030;4.586;2022-10-31T11:07:15;27.27;;;22.65;;
41683;SDS011;27369;52.030;4.586;2022-10-31T11:09:40;26.60;;;21.90;;
41683;SDS011;27369;52.030;4.586;2022-10-31T11:12:10;31.75;;;23.35;;
41683;SDS011;27369;52.030;4.586;2022-10-31T11:17:31;28.33;;;22.67;;
41683;SDS011;27369;52.030;4.586;2022-10-31T11:20:03;29.00;;;22.15;;
41683;SDS011;27369;52.030;4.586;2022-10-31T11:22:29;26.55;;;21.00;;
41683;SDS011;27369;52.030;4.586;2022-10-31T11:24:55;27.95;;;21.60;;
41683;SDS011;27369;52.030;4.586;2022-10-31T11:27:21;23.08;;;20.02;;
41683;SDS011;27369;52.030;4.586;2022-10-31T11:29:48;26.05;;;21.45;;
41683;SDS011;27369;52.030;4.586;2022-10-31T11:32:16;28.52;;;20.65;;
41683;SDS011;27369;52.030;4.586;2022-10-31T11:34:48;24.52;;;21.27;;
41683;SDS011;27369;52.030;4.586;2022-10-31T11:37:19;25.25;;;21.35;;
41683;SDS011;27369;52.030;4.586;2022-10-31T11:39:47;25.88;;;21.23;;
41683;SDS011;27369;52.030;4.586;2022-10-31T11:42:18;24.92;;;20.63;;
41683;SDS011;27369;52.030;4.586;2022-10-31T11:44:48;25.80;;;21.35;;
41683;SDS011;27369;52.030;4.586;2022-10-31T11:47:16;27.23;;;20.80;;
41683;SDS011;27369;52.030;4.586;2022-10-31T11:49:46;26.08;;;21.50;;
41683;SDS011;27369;52.030;4.586;2022-10-31T11:52:19;23.80;;;21.17;;
41683;SDS011;27369;52.030;4.586;2022-10-31T11:55:01;27.40;;;21.80;;
41683;SDS011;27369;52.030;4.586;2022-10-31T11:57:47;26.42;;;21.77;;
41683;SDS011;27369;52.030;4.586;2022-10-31T12:02:46;25.42;;;20.33;;
41683;SDS011;27369;52.030;4.586;2022-10-31T12:05:19;27.98;;;20.73;;
41683;SDS011;27369;52.030;4.586;2022-10-31T12:07:50;25.80;;;20.83;;
41683;SDS011;27369;52.030;4.586;2022-10-31T12:10:15;25.30;;;21.13;;
41683;SDS011;27369;52.030;4.586;2022-10-31T12:13:04;26.75;;;21.13;;
41683;SDS011;27369;52.030;4.586;2022-10-31T12:15:44;28.98;;;21.58;;
41683;SDS011;27369;52.030;4.586;2022-10-31T12:21:14;27.60;;;20.60;;
41683;SDS011;27369;52.030;4.586;2022-10-31T12:23:51;26.88;;;21.55;;
41683;SDS011;27369;52.030;4.586;2022-10-31T12:26:42;28.33;;;21.52;;
41683;SDS011;27369;52.030;4.586;2022-10-31T12:29:41;30.40;;;22.33;;
41683;SDS011;27369;52.030;4.586;2022-10-31T12:46:04;31.75;;;23.80;;
41683;SDS011;27369;52.030;4.586;2022-10-31T12:59:53;36.15;;;25.95;;
41683;SDS011;27369;52.030;4.586;2022-10-31T13:05:06;35.17;;;25.75;;
41683;SDS011;27369;52.030;4.586;2022-10-31T13:07:44;32.60;;;26.42;;
41683;SDS011;27369;52.030;4.586;2022-10-31T13:12:46;44.65;;;29.38;;
41683;SDS011;27369;52.030;4.586;2022-10-31T13:15:18;42.88;;;28.80;;
41683;SDS011;27369;52.030;4.586;2022-10-31T13:17:54;45.33;;;28.90;;
41683;SDS011;27369;52.030;4.586;2022-10-31T13:20:27;39.70;;;29.10;;
41683;SDS011;27369;52.030;4.586;2022-10-31T13:25:39;48.20;;;31.58;;
41683;SDS011;27369;52.030;4.586;2022-10-31T13:31:02;50.42;;;29.80;;
41683;SDS011;27369;52.030;4.586;2022-10-31T13:33:39;46.63;;;30.40;;
41683;SDS011;27369;52.030;4.586;2022-10-31T13:39:21;46.92;;;30.40;;
41683;SDS011;27369;52.030;4.586;2022-10-31T13:42:14;45.85;;;31.13;;
41683;SDS011;27369;52.030;4.586;2022-10-31T13:44:44;45.13;;;31.70;;
41683;SDS011;27369;52.030;4.586;2022-10-31T13:47:26;41.53;;;29.63;;
41683;SDS011;27369;52.030;4.586;2022-10-31T13:50:04;43.42;;;30.25;;
41683;SDS011;27369;52.030;4.586;2022-10-31T13:52:31;40.92;;;29.83;;
41683;SDS011;27369;52.030;4.586;2022-10-31T13:54:56;44.42;;;30.17;;
41683;SDS011;27369;52.030;4.586;2022-10-31T13:57:33;45.75;;;29.63;;
41683;SDS011;27369;52.030;4.586;2022-10-31T14:02:50;44.90;;;31.77;;
41683;SDS011;27369;52.030;4.586;2022-10-31T14:05:24;45.63;;;31.00;;
41683;SDS011;27369;52.030;4.586;2022-10-31T14:07:55;42.38;;;30.73;;
41683;SDS011;27369;52.030;4.586;2022-10-31T14:10:26;43.85;;;30.48;;
41683;SDS011;27369;52.030;4.586;2022-10-31T14:13:04;44.40;;;32.45;;
41683;SDS011;27369;52.030;4.586;2022-10-31T14:15:32;45.78;;;31.80;;
41683;SDS011;27369;52.030;4.586;2022-10-31T14:17:59;45.13;;;31.83;;
41683;SDS011;27369;52.030;4.586;2022-10-31T14:22:55;45.42;;;31.15;;
41683;SDS011;27369;52.030;4.586;2022-10-31T14:25:28;49.20;;;31.92;;
41683;SDS011;27369;52.030;4.586;2022-10-31T14:27:59;48.72;;;32.75;;
41683;SDS011;27369;52.030;4.586;2022-10-31T14:30:27;48.00;;;32.63;;
41683;SDS011;27369;52.030;4.586;2022-10-31T14:32:58;42.50;;;31.75;;
41683;SDS011;27369;52.030;4.586;2022-10-31T14:35:37;47.60;;;32.58;;
41683;SDS011;27369;52.030;4.586;2022-10-31T14:43:55;47.10;;;32.53;;
41683;SDS011;27369;52.030;4.586;2022-10-31T14:47:00;46.22;;;32.83;;
41683;SDS011;27369;52.030;4.586;2022-10-31T14:52:11;47.05;;;32.83;;
41683;SDS011;27369;52.030;4.586;2022-10-31T14:54:43;47.83;;;32.60;;
41683;SDS011;27369;52.030;4.586;2022-10-31T14:57:25;49.47;;;33.40;;
41683;SDS011;27369;52.030;4.586;2022-10-31T15:00:15;49.80;;;34.25;;
41683;SDS011;27369;52.030;4.586;2022-10-31T15:05:20;48.47;;;30.73;;
41683;SDS011;27369;52.030;4.586;2022-10-31T15:07:53;47.13;;;32.17;;
41683;SDS011;27369;52.030;4.586;2022-10-31T15:10:25;53.70;;;32.03;;
41683;SDS011;27369;52.030;4.586;2022-10-31T15:12:52;52.70;;;33.65;;
41683;SDS011;27369;52.030;4.586;2022-10-31T15:15:25;50.63;;;31.55;;
41683;SDS011;27369;52.030;4.586;2022-10-31T15:18:00;47.67;;;31.23;;
41683;SDS011;27369;52.030;4.586;2022-10-31T15:20:28;52.67;;;31.90;;
41683;SDS011;27369;52.030;4.586;2022-10-31T15:22:56;51.65;;;31.95;;
41683;SDS011;27369;52.030;4.586;2022-10-31T15:25:24;52.33;;;32.35;;
41683;SDS011;27369;52.030;4.586;2022-10-31T15:27:51;44.60;;;30.40;;
41683;SDS011;27369;52.030;4.586;2022-10-31T15:32:46;53.05;;;32.95;;
41683;SDS011;27369;52.030;4.586;2022-10-31T15:37:58;55.72;;;32.50;;
41683;SDS011;27369;52.030;4.586;2022-10-31T15:40:25;51.45;;;31.77;;
41683;SDS011;27369;52.030;4.586;2022-10-31T15:42:53;53.15;;;32.47;;
41683;SDS011;27369;52.030;4.586;2022-10-31T15:45:31;45.83;;;32.28;;
41683;SDS011;27369;52.030;4.586;2022-10-31T15:47:59;49.20;;;32.00;;
41683;SDS011;27369;52.030;4.586;2022-10-31T15:50:37;54.42;;;33.25;;
41683;SDS011;27369;52.030;4.586;2022-10-31T15:53:05;53.58;;;32.33;;
41683;SDS011;27369;52.030;4.586;2022-10-31T15:55:52;49.00;;;31.63;;
41683;SDS011;27369;52.030;4.586;2022-10-31T15:58:20;53.22;;;32.67;;
41683;SDS011;27369;52.030;4.586;2022-10-31T16:03:23;49.85;;;32.42;;
41683;SDS011;27369;52.030;4.586;2022-10-31T16:05:52;55.17;;;30.98;;
41683;SDS011;27369;52.030;4.586;2022-10-31T16:10:51;50.55;;;31.80;;
41683;SDS011;27369;52.030;4.586;2022-10-31T16:18:14;48.42;;;30.33;;
41683;SDS011;27369;52.030;4.586;2022-10-31T16:20:40;50.30;;;31.02;;
41683;SDS011;27369;52.030;4.586;2022-10-31T16:23:05;47.05;;;30.67;;
41683;SDS011;27369;52.030;4.586;2022-10-31T16:25:37;53.88;;;30.52;;
41683;SDS011;27369;52.030;4.586;2022-10-31T16:28:04;49.08;;;28.92;;
41683;SDS011;27369;52.030;4.586;2022-10-31T16:30:42;51.00;;;30.95;;
41683;SDS011;27369;52.030;4.586;2022-10-31T16:35:54;44.72;;;27.73;;
41683;SDS011;27369;52.030;4.586;2022-10-31T16:38:21;51.90;;;29.13;;
41683;SDS011;27369;52.030;4.586;2022-10-31T16:40:47;44.50;;;28.77;;
41683;SDS011;27369;52.030;4.586;2022-10-31T16:43:14;46.88;;;28.67;;
41683;SDS011;27369;52.030;4.586;2022-10-31T16:45:49;43.83;;;28.40;;
41683;SDS011;27369;52.030;4.586;2022-10-31T16:48:17;44.60;;;26.63;;
41683;SDS011;27369;52.030;4.586;2022-10-31T16:50:45;48.33;;;27.30;;
41683;SDS011;27369;52.030;4.586;2022-10-31T16:53:12;42.80;;;25.50;;
41683;SDS011;27369;52.030;4.586;2022-10-31T16:55:48;41.63;;;26.88;;
41683;SDS011;27369;52.030;4.586;2022-10-31T16:58:20;46.03;;;27.98;;
41683;SDS011;27369;52.030;4.586;2022-10-31T17:00:49;42.53;;;26.50;;
41683;SDS011;27369;52.030;4.586;2022-10-31T17:03:15;42.60;;;25.80;;
41683;SDS011;27369;52.030;4.586;2022-10-31T17:05:40;37.67;;;26.27;;
41683;SDS011;27369;52.030;4.586;2022-10-31T17:08:06;43.28;;;25.60;;
41683;SDS011;27369;52.030;4.586;2022-10-31T17:10:31;32.78;;;21.75;;
41683;SDS011;27369;52.030;4.586;2022-10-31T17:12:57;32.08;;;21.80;;
41683;SDS011;27369;52.030;4.586;2022-10-31T17:15:25;37.28;;;22.40;;
41683;SDS011;27369;52.030;4.586;2022-10-31T17:17:52;34.15;;;23.23;;
41683;SDS011;27369;52.030;4.586;2022-10-31T17:20:24;37.15;;;22.02;;
41683;SDS011;27369;52.030;4.586;2022-10-31T17:22:52;34.35;;;22.70;;
41683;SDS011;27369;52.030;4.586;2022-10-31T17:25:19;33.55;;;21.50;;
41683;SDS011;27369;52.030;4.586;2022-10-31T17:27:47;36.53;;;23.08;;